createdAt,value
2019-03-20T00:00:22.716Z,3.1
2019-03-20T00:01:22.766Z,3.1
2019-03-20T00:02:22.816Z,3.1
2019-03-20T00:03:22.855Z,3.1
2019-03-20T00:04:22.957Z,3.1
2019-03-20T00:05:22.941Z,3.1
2019-03-20T00:06:23.016Z,3.1
2019-03-20T00:07:23.087Z,3.1
2019-03-20T00:08:23.194Z,3.1
2019-03-20T00:09:23.143Z,3.1
2019-03-20T00:10:23.232Z,3.1
2019-03-20T00:11:23.341Z,3.1
2019-03-20T00:12:23.394Z,3.1
2019-03-20T00:13:23.350Z,3.1
2019-03-20T00:14:23.364Z,3.1
2019-03-20T00:15:23.418Z,3.1
2019-03-20T00:16:23.451Z,3.1
2019-03-20T00:17:23.513Z,3.1
2019-03-20T00:18:25.079Z,3.1
2019-03-20T00:19:23.668Z,3.1
2019-03-20T00:20:23.729Z,3.1
2019-03-20T00:21:23.823Z,3.1
2019-03-20T00:22:23.837Z,3.1
2019-03-20T00:23:23.922Z,3.1
2019-03-20T00:24:23.964Z,3.1
2019-03-20T00:25:23.997Z,3.1
2019-03-20T00:26:24.064Z,3
2019-03-20T00:27:24.074Z,3
2019-03-20T00:28:24.148Z,3
2019-03-20T00:29:24.218Z,3
2019-03-20T00:30:24.289Z,3
2019-03-20T00:31:24.359Z,3
2019-03-20T00:32:24.374Z,3
2019-03-20T00:33:24.458Z,3
2019-03-20T00:34:24.487Z,3
2019-03-20T00:35:24.556Z,3
2019-03-20T00:36:24.713Z,3
2019-03-20T00:37:24.666Z,3
2019-03-20T00:38:25.588Z,3
2019-03-20T00:39:24.762Z,3
2019-03-20T00:40:24.799Z,3
2019-03-20T00:41:24.890Z,3
2019-03-20T00:42:24.895Z,3
2019-03-20T00:43:24.921Z,3
2019-03-20T00:44:24.990Z,3
2019-03-20T00:45:25.027Z,3
2019-03-20T00:46:25.109Z,3
2019-03-20T00:47:25.121Z,3
2019-03-20T00:48:25.542Z,3
2019-03-20T00:49:25.250Z,3
2019-03-20T00:50:25.375Z,3
2019-03-20T00:51:25.400Z,3
2019-03-20T00:52:25.403Z,3
2019-03-20T00:53:25.454Z,3.1
2019-03-20T00:54:25.493Z,3.1
2019-03-20T00:55:10.501Z,3.1
2019-03-20T00:55:31.964Z,3.1
2019-03-20T00:56:25.667Z,3.1
2019-03-20T00:57:25.702Z,3.1
2019-03-20T00:58:25.778Z,3.1
2019-03-20T00:59:25.876Z,3.1
2019-03-20T01:00:25.829Z,3
2019-03-20T01:01:25.962Z,3
2019-03-20T01:02:26.080Z,3
2019-03-20T01:03:26.063Z,3
2019-03-20T01:04:26.126Z,3
2019-03-20T01:05:26.199Z,3
2019-03-20T01:06:26.235Z,3
2019-03-20T01:07:26.305Z,3
2019-03-20T01:08:26.360Z,3
2019-03-20T01:09:26.428Z,3
2019-03-20T01:10:26.477Z,3
2019-03-20T01:11:26.560Z,3
2019-03-20T01:12:26.579Z,3
2019-03-20T01:13:26.730Z,3
2019-03-20T01:14:26.734Z,3
2019-03-20T01:15:26.745Z,3
2019-03-20T01:16:26.879Z,3
2019-03-20T01:17:26.853Z,3
2019-03-20T01:18:26.940Z,3
2019-03-20T01:19:27.013Z,2.9
2019-03-20T01:20:27.043Z,2.9
2019-03-20T01:21:27.097Z,3
2019-03-20T01:22:27.109Z,2.9
2019-03-20T01:23:27.176Z,2.9
2019-03-20T01:24:27.208Z,2.9
2019-03-20T01:25:27.330Z,2.9
2019-03-20T01:26:27.388Z,2.9
2019-03-20T01:27:27.415Z,2.9
2019-03-20T01:28:27.628Z,2.9
2019-03-20T01:29:27.684Z,2.9
2019-03-20T01:30:27.724Z,2.9
2019-03-20T01:31:27.748Z,2.9
2019-03-20T01:32:27.816Z,2.9
2019-03-20T01:33:27.825Z,2.9
2019-03-20T01:34:27.925Z,2.9
2019-03-20T01:35:27.941Z,2.9
2019-03-20T01:36:28.000Z,2.9
2019-03-20T01:37:28.048Z,2.9
2019-03-20T01:38:28.070Z,2.9
2019-03-20T01:39:28.200Z,2.9
2019-03-20T01:40:28.214Z,2.9
2019-03-20T01:41:37.523Z,2.9
2019-03-20T01:42:28.323Z,2.9
2019-03-20T01:43:28.392Z,2.9
2019-03-20T01:44:28.532Z,2.9
2019-03-20T01:45:28.444Z,2.9
2019-03-20T01:46:28.495Z,2.9
2019-03-20T01:47:28.526Z,2.9
2019-03-20T01:48:28.580Z,2.9
2019-03-20T01:49:28.633Z,2.9
2019-03-20T01:50:28.679Z,2.9
2019-03-20T01:51:28.833Z,2.9
2019-03-20T01:52:28.755Z,2.9
2019-03-20T01:53:28.806Z,2.9
2019-03-20T01:54:28.880Z,2.9
2019-03-20T01:55:28.945Z,2.9
2019-03-20T01:56:29.001Z,2.9
2019-03-20T01:57:29.016Z,2.9
2019-03-20T01:58:29.080Z,2.9
2019-03-20T01:59:29.137Z,2.9
2019-03-20T02:00:29.196Z,2.9
2019-03-20T02:01:29.269Z,2.9
2019-03-20T02:02:29.314Z,2.9
2019-03-20T02:03:29.363Z,2.9
2019-03-20T02:04:29.420Z,2.9
2019-03-20T02:05:35.535Z,2.9
2019-03-20T02:06:29.576Z,2.9
2019-03-20T02:07:29.563Z,2.9
2019-03-20T02:08:29.642Z,2.9
2019-03-20T02:09:29.723Z,2.9
2019-03-20T02:10:29.727Z,2.9
2019-03-20T02:11:29.803Z,2.9
2019-03-20T02:12:29.823Z,2.9
2019-03-20T02:13:29.902Z,2.9
2019-03-20T02:14:29.925Z,2.9
2019-03-20T02:15:38.483Z,2.9
2019-03-20T02:16:30.111Z,2.9
2019-03-20T02:17:30.128Z,2.9
2019-03-20T02:18:30.215Z,2.9
2019-03-20T02:19:30.225Z,2.9
2019-03-20T02:20:30.279Z,2.9
2019-03-20T02:21:30.341Z,2.9
2019-03-20T02:22:30.412Z,2.9
2019-03-20T02:23:30.462Z,2.9
2019-03-20T02:24:30.534Z,2.9
2019-03-20T02:25:32.356Z,2.8
2019-03-20T02:26:30.637Z,2.8
2019-03-20T02:27:30.648Z,2.9
2019-03-20T02:28:30.711Z,2.9
2019-03-20T02:29:30.765Z,2.9
2019-03-20T02:30:30.808Z,2.9
2019-03-20T02:31:30.858Z,2.8
2019-03-20T02:32:30.929Z,2.8
2019-03-20T02:33:31.000Z,2.9
2019-03-20T02:34:31.023Z,2.9
2019-03-20T02:35:31.078Z,2.8
2019-03-20T02:36:31.111Z,2.8
2019-03-20T02:37:31.172Z,2.8
2019-03-20T02:38:31.241Z,2.8
2019-03-20T02:39:31.323Z,2.8
2019-03-20T02:40:31.385Z,2.8
2019-03-20T02:41:31.638Z,2.8
2019-03-20T02:42:33.068Z,2.8
2019-03-20T02:43:31.491Z,2.8
2019-03-20T02:44:31.749Z,2.8
2019-03-20T02:45:31.732Z,2.8
2019-03-20T02:46:31.702Z,2.8
2019-03-20T02:47:31.826Z,2.8
2019-03-20T02:48:31.859Z,2.9
2019-03-20T02:49:32.154Z,2.9
2019-03-20T02:50:32.107Z,2.9
2019-03-20T02:51:31.958Z,2.9
2019-03-20T02:52:32.105Z,2.9
2019-03-20T02:53:32.111Z,2.9
2019-03-20T02:54:32.123Z,2.9
2019-03-20T02:55:32.185Z,2.9
2019-03-20T02:56:32.226Z,2.9
2019-03-20T02:57:32.320Z,2.9
2019-03-20T02:58:32.340Z,2.9
2019-03-20T02:59:32.389Z,2.9
2019-03-20T03:00:32.438Z,2.9
2019-03-20T03:01:32.508Z,2.9
2019-03-20T03:02:32.996Z,2.9
2019-03-20T03:03:32.541Z,2.9
2019-03-20T03:04:32.820Z,2.9
2019-03-20T03:05:32.864Z,2.9
2019-03-20T03:06:33.293Z,2.9
2019-03-20T03:07:32.737Z,2.9
2019-03-20T03:08:33.715Z,3
2019-03-20T03:09:33.810Z,3
2019-03-20T03:10:33.841Z,3
2019-03-20T03:11:32.977Z,3
2019-03-20T03:12:34.184Z,3
2019-03-20T03:13:33.409Z,3
2019-03-20T03:14:34.667Z,3
2019-03-20T03:15:34.627Z,3
2019-03-20T03:16:33.566Z,3
2019-03-20T03:17:35.143Z,3
2019-03-20T03:18:35.329Z,3
2019-03-20T03:19:33.415Z,3
2019-03-20T03:20:33.573Z,3
2019-03-20T03:21:35.499Z,3
2019-03-20T03:22:35.958Z,3
2019-03-20T03:23:36.017Z,3
2019-03-20T03:24:36.321Z,2.9
2019-03-20T03:25:36.231Z,2.9
2019-03-20T03:26:33.862Z,2.9
2019-03-20T03:27:35.193Z,3
2019-03-20T03:28:33.920Z,2.9
2019-03-20T03:29:34.037Z,2.9
2019-03-20T03:30:34.558Z,2.9
2019-03-20T03:31:34.495Z,2.9
2019-03-20T03:32:34.132Z,2.9
2019-03-20T03:33:34.150Z,2.9
2019-03-20T03:34:34.240Z,2.9
2019-03-20T03:35:34.262Z,2.9
2019-03-20T03:36:34.307Z,2.9
2019-03-20T03:37:34.388Z,2.9
2019-03-20T03:38:34.466Z,2.9
2019-03-20T03:39:34.519Z,2.9
2019-03-20T03:40:34.623Z,2.9
2019-03-20T03:41:34.869Z,2.9
2019-03-20T03:42:34.700Z,2.9
2019-03-20T03:43:34.744Z,2.9
2019-03-20T03:44:34.786Z,2.9
2019-03-20T03:45:34.838Z,2.9
2019-03-20T03:46:34.887Z,2.9
2019-03-20T03:47:34.923Z,2.9
2019-03-20T03:48:34.969Z,2.9
2019-03-20T03:49:35.017Z,2.9
2019-03-20T03:50:35.053Z,2.9
2019-03-20T03:51:35.131Z,2.9
2019-03-20T03:52:35.178Z,2.9
2019-03-20T03:53:35.278Z,2.9
2019-03-20T03:54:35.294Z,2.9
2019-03-20T03:55:35.341Z,2.9
2019-03-20T03:56:35.400Z,2.9
2019-03-20T03:57:35.442Z,2.9
2019-03-20T03:58:35.476Z,2.9
2019-03-20T03:59:35.523Z,2.9
2019-03-20T04:00:35.586Z,2.9
2019-03-20T04:01:35.613Z,2.9
2019-03-20T04:02:35.683Z,2.9
2019-03-20T04:03:35.705Z,2.9
2019-03-20T04:04:35.779Z,2.9
2019-03-20T04:05:35.837Z,2.9
2019-03-20T04:06:36.271Z,2.9
2019-03-20T04:07:35.965Z,2.9
2019-03-20T04:08:35.986Z,2.9
2019-03-20T04:09:36.026Z,2.9
2019-03-20T04:10:36.054Z,2.9
2019-03-20T04:11:36.172Z,2.9
2019-03-20T04:12:36.207Z,2.9
2019-03-20T04:13:36.330Z,2.9
2019-03-20T04:14:36.298Z,2.9
2019-03-20T04:15:36.583Z,3
2019-03-20T04:16:36.386Z,3
2019-03-20T04:17:36.454Z,3
2019-03-20T04:18:36.497Z,3
2019-03-20T04:19:36.575Z,3
2019-03-20T04:20:36.587Z,3
2019-03-20T04:21:36.640Z,3
2019-03-20T04:22:36.693Z,3
2019-03-20T04:23:36.750Z,3
2019-03-20T04:24:36.813Z,3
2019-03-20T04:25:36.851Z,3
2019-03-20T04:26:36.938Z,3
2019-03-20T04:27:36.971Z,3
2019-03-20T04:28:37.049Z,3
2019-03-20T04:29:37.082Z,3.1
2019-03-20T04:30:37.119Z,3.1
2019-03-20T04:31:37.212Z,3.1
2019-03-20T04:32:37.307Z,3.1
2019-03-20T04:33:37.287Z,3.1
2019-03-20T04:34:37.355Z,3.1
2019-03-20T04:35:37.489Z,3.1
2019-03-20T04:36:47.087Z,3.1
2019-03-20T04:37:37.554Z,3.1
2019-03-20T04:38:37.747Z,3.1
2019-03-20T04:39:37.588Z,3.1
2019-03-20T04:40:37.609Z,3.1
2019-03-20T04:41:37.687Z,3.1
2019-03-20T04:42:37.747Z,3.1
2019-03-20T04:43:37.800Z,3.1
2019-03-20T04:44:37.828Z,3.1
2019-03-20T04:45:37.926Z,3.1
2019-03-20T04:46:37.987Z,3.1
2019-03-20T04:47:38.023Z,3.1
2019-03-20T04:48:38.077Z,3.1
2019-03-20T04:49:38.086Z,3.1
2019-03-20T04:50:38.145Z,3.1
2019-03-20T04:51:38.204Z,3.1
2019-03-20T04:52:38.285Z,3.1
2019-03-20T04:53:38.297Z,3.1
2019-03-20T04:54:38.380Z,3.1
2019-03-20T04:55:38.400Z,3.1
2019-03-20T04:56:38.460Z,3.1
2019-03-20T04:57:38.456Z,3.1
2019-03-20T04:58:38.561Z,3.1
2019-03-20T04:59:38.643Z,3.1
2019-03-20T05:00:38.632Z,3.1
2019-03-20T05:01:38.767Z,3.2
2019-03-20T05:02:38.727Z,3.2
2019-03-20T05:03:38.810Z,3.2
2019-03-20T05:04:38.916Z,3.2
2019-03-20T05:05:38.937Z,3.2
2019-03-20T05:06:38.988Z,3.1
2019-03-20T05:07:39.011Z,3.1
2019-03-20T05:08:39.052Z,3.1
2019-03-20T05:09:39.132Z,3.1
2019-03-20T05:10:39.167Z,3.1
2019-03-20T05:11:39.254Z,3.1
2019-03-20T05:12:39.277Z,3.1
2019-03-20T05:13:39.377Z,3.1
2019-03-20T05:14:39.411Z,3.1
2019-03-20T05:15:39.468Z,3.1
2019-03-20T05:16:39.512Z,3.1
2019-03-20T05:17:39.620Z,3.2
2019-03-20T05:18:39.611Z,3.2
2019-03-20T05:19:39.646Z,3.2
2019-03-20T05:20:39.730Z,3.2
2019-03-20T05:21:39.761Z,3.2
2019-03-20T05:22:39.808Z,3.2
2019-03-20T05:23:39.872Z,3.2
2019-03-20T05:24:39.922Z,3.2
2019-03-20T05:25:39.962Z,3.2
2019-03-20T05:26:40.050Z,3.2
2019-03-20T05:27:40.081Z,3.2
2019-03-20T05:28:40.144Z,3.3
2019-03-20T05:29:40.214Z,3.3
2019-03-20T05:30:40.222Z,3.3
2019-03-20T05:31:40.333Z,3.3
2019-03-20T05:32:40.344Z,3.3
2019-03-20T05:33:40.368Z,3.3
2019-03-20T05:34:40.424Z,3.3
2019-03-20T05:35:40.462Z,3.3
2019-03-20T05:36:40.541Z,3.3
2019-03-20T05:37:40.642Z,3.3
2019-03-20T05:38:40.662Z,3.3
2019-03-20T05:39:40.743Z,3.3
2019-03-20T05:40:40.786Z,3.3
2019-03-20T05:41:40.857Z,3.3
2019-03-20T05:42:40.892Z,3.3
2019-03-20T05:43:40.953Z,3.3
2019-03-20T05:44:40.994Z,3.4
2019-03-20T05:45:41.046Z,3.4
2019-03-20T05:46:41.101Z,3.4
2019-03-20T05:47:41.160Z,3.4
2019-03-20T05:48:41.196Z,3.4
2019-03-20T05:49:41.251Z,3.4
2019-03-20T05:50:41.310Z,3.4
2019-03-20T05:51:41.373Z,3.4
2019-03-20T05:52:41.460Z,3.4
2019-03-20T05:53:41.482Z,3.4
2019-03-20T05:54:41.621Z,3.4
2019-03-20T05:55:41.594Z,3.4
2019-03-20T05:56:41.685Z,3.4
2019-03-20T05:57:41.736Z,3.4
2019-03-20T05:58:41.769Z,3.4
2019-03-20T05:59:41.867Z,3.4
2019-03-20T06:00:41.839Z,3.4
2019-03-20T06:01:41.949Z,3.4
2019-03-20T06:02:41.996Z,3.4
2019-03-20T06:03:42.080Z,3.4
2019-03-20T06:04:42.195Z,3.4
2019-03-20T06:05:42.361Z,3.4
2019-03-20T06:06:42.258Z,3.4
2019-03-20T06:07:42.560Z,3.4
2019-03-20T06:08:42.648Z,3.4
2019-03-20T06:09:42.845Z,3.4
2019-03-20T06:10:42.530Z,3.4
2019-03-20T06:11:42.560Z,3.4
2019-03-20T06:12:42.718Z,3.4
2019-03-20T06:13:42.593Z,3.4
2019-03-20T06:14:42.744Z,3.4
2019-03-20T06:15:42.704Z,3.4
2019-03-20T06:16:43.023Z,3.4
2019-03-20T06:17:43.024Z,3.4
2019-03-20T06:18:42.841Z,3.4
2019-03-20T06:19:42.956Z,3.5
2019-03-20T06:20:43.020Z,3.5
2019-03-20T06:21:43.032Z,3.5
2019-03-20T06:22:43.174Z,3.5
2019-03-20T06:23:43.122Z,3.5
2019-03-20T06:24:43.219Z,3.6
2019-03-20T06:25:43.227Z,3.6
2019-03-20T06:26:43.327Z,3.6
2019-03-20T06:27:43.357Z,3.5
2019-03-20T06:28:43.454Z,3.5
2019-03-20T06:29:43.475Z,3.5
2019-03-20T06:30:43.529Z,3.5
2019-03-20T06:31:43.566Z,3.5
2019-03-20T06:32:43.629Z,3.5
2019-03-20T06:33:43.674Z,3.6
2019-03-20T06:34:43.735Z,3.6
2019-03-20T06:35:43.924Z,3.6
2019-03-20T06:36:43.861Z,3.6
2019-03-20T06:37:43.911Z,3.6
2019-03-20T06:38:43.984Z,3.6
2019-03-20T06:39:44.032Z,3.6
2019-03-20T06:40:44.188Z,3.6
2019-03-20T06:41:44.171Z,3.6
2019-03-20T06:42:44.226Z,3.6
2019-03-20T06:43:44.288Z,3.7
2019-03-20T06:44:44.324Z,3.7
2019-03-20T06:45:44.369Z,3.7
2019-03-20T06:46:44.427Z,3.7
2019-03-20T06:47:44.562Z,3.7
2019-03-20T06:48:44.567Z,3.8
2019-03-20T06:49:44.590Z,3.8
2019-03-20T06:50:44.628Z,3.8
2019-03-20T06:51:44.748Z,3.8
2019-03-20T06:52:44.781Z,3.8
2019-03-20T06:53:44.797Z,3.8
2019-03-20T06:54:44.871Z,3.8
2019-03-20T06:55:44.924Z,3.8
2019-03-20T06:56:45.024Z,3.8
2019-03-20T06:57:45.037Z,3.8
2019-03-20T06:58:45.162Z,3.8
2019-03-20T06:59:45.200Z,3.8
2019-03-20T07:00:45.275Z,3.8
2019-03-20T07:01:45.310Z,3.8
2019-03-20T07:02:45.354Z,3.8
2019-03-20T07:03:45.395Z,3.8
2019-03-20T07:04:45.458Z,3.8
2019-03-20T07:05:45.554Z,3.8
2019-03-20T07:06:45.530Z,3.8
2019-03-20T07:07:45.710Z,3.9
2019-03-20T07:08:45.654Z,3.9
2019-03-20T07:09:45.704Z,3.9
2019-03-20T07:10:45.777Z,3.9
2019-03-20T07:11:45.813Z,3.9
2019-03-20T07:12:45.831Z,3.9
2019-03-20T07:13:45.938Z,3.9
2019-03-20T07:14:45.956Z,3.9
2019-03-20T07:15:46.032Z,3.9
2019-03-20T07:16:46.088Z,4
2019-03-20T07:17:46.181Z,4
2019-03-20T07:18:46.184Z,4
2019-03-20T07:19:46.224Z,4
2019-03-20T07:20:46.309Z,4.1
2019-03-20T07:21:46.350Z,4.1
2019-03-20T07:22:46.423Z,4.1
2019-03-20T07:23:46.476Z,4.1
2019-03-20T07:24:46.618Z,4.1
2019-03-20T07:25:46.568Z,4.1
2019-03-20T07:26:46.629Z,4.1
2019-03-20T07:27:46.682Z,4.1
2019-03-20T07:28:46.749Z,4.1
2019-03-20T07:29:46.789Z,4.1
2019-03-20T07:30:46.878Z,4.2
2019-03-20T07:31:46.957Z,4.2
2019-03-20T07:32:46.964Z,4.2
2019-03-20T07:33:47.035Z,4.2
2019-03-20T07:34:47.063Z,4.2
2019-03-20T07:35:47.107Z,4.2
2019-03-20T07:36:47.203Z,4.2
2019-03-20T07:37:55.483Z,4.3
2019-03-20T07:38:47.291Z,4.3
2019-03-20T07:39:47.331Z,4.3
2019-03-20T07:40:47.359Z,4.3
2019-03-20T07:41:47.442Z,4.3
2019-03-20T07:42:47.455Z,4.3
2019-03-20T07:43:47.587Z,4.4
2019-03-20T07:44:47.594Z,4.4
2019-03-20T07:45:47.651Z,4.4
2019-03-20T07:46:47.736Z,4.4
2019-03-20T07:47:48.065Z,4.4
2019-03-20T07:48:47.781Z,4.5
2019-03-20T07:49:47.832Z,4.5
2019-03-20T07:50:47.893Z,4.5
2019-03-20T07:51:47.986Z,4.6
2019-03-20T07:52:48.052Z,4.6
2019-03-20T07:53:48.061Z,4.6
2019-03-20T07:54:48.108Z,4.6
2019-03-20T07:55:48.312Z,4.6
2019-03-20T07:56:48.232Z,4.6
2019-03-20T07:57:48.314Z,4.6
2019-03-20T07:58:48.335Z,4.6
2019-03-20T07:59:48.352Z,4.6
2019-03-20T08:00:48.409Z,4.6
2019-03-20T08:01:48.517Z,4.6
2019-03-20T08:02:48.689Z,4.6
2019-03-20T08:03:48.768Z,4.6
2019-03-20T08:04:48.698Z,4.6
2019-03-20T08:05:48.832Z,4.7
2019-03-20T08:06:48.805Z,4.7
2019-03-20T08:07:48.900Z,4.7
2019-03-20T08:08:48.850Z,4.7
2019-03-20T08:09:48.874Z,4.7
2019-03-20T08:10:49.108Z,4.7
2019-03-20T08:11:49.206Z,4.7
2019-03-20T08:12:49.300Z,4.7
2019-03-20T08:13:49.099Z,4.7
2019-03-20T08:14:49.121Z,4.7
2019-03-20T08:15:49.229Z,4.7
2019-03-20T08:16:49.665Z,4.7
2019-03-20T08:17:49.491Z,4.7
2019-03-20T08:18:49.360Z,4.7
2019-03-20T08:19:49.418Z,4.8
2019-03-20T08:20:49.469Z,4.8
2019-03-20T08:21:49.536Z,4.8
2019-03-20T08:22:49.582Z,4.8
2019-03-20T08:23:49.641Z,4.8
2019-03-20T08:24:49.711Z,4.8
2019-03-20T08:25:49.813Z,4.8
2019-03-20T08:26:49.792Z,4.8
2019-03-20T08:27:49.832Z,4.8
2019-03-20T08:28:49.876Z,4.8
2019-03-20T08:29:49.958Z,4.8
2019-03-20T08:30:50.056Z,4.9
2019-03-20T08:31:50.072Z,4.9
2019-03-20T08:32:50.119Z,4.9
2019-03-20T08:33:50.202Z,4.9
2019-03-20T08:34:50.370Z,4.9
2019-03-20T08:35:50.322Z,4.9
2019-03-20T08:36:50.363Z,4.9
2019-03-20T08:37:50.386Z,5
2019-03-20T08:38:50.452Z,5
2019-03-20T08:39:50.540Z,5
2019-03-20T08:40:50.581Z,5
2019-03-20T08:41:50.648Z,5.1
2019-03-20T08:42:50.667Z,5.1
2019-03-20T08:43:50.900Z,5.1
2019-03-20T08:44:50.895Z,5.1
2019-03-20T08:45:50.811Z,5.1
2019-03-20T08:46:50.895Z,5.1
2019-03-20T08:47:50.986Z,5.1
2019-03-20T08:48:51.043Z,5.1
2019-03-20T08:49:51.085Z,5.2
2019-03-20T08:50:51.140Z,5.2
2019-03-20T08:51:51.186Z,5.2
2019-03-20T08:52:51.244Z,5.2
2019-03-20T08:53:51.316Z,5.2
2019-03-20T08:54:51.369Z,5.3
2019-03-20T08:55:51.403Z,5.3
2019-03-20T08:56:51.656Z,5.3
2019-03-20T08:57:51.685Z,5.3
2019-03-20T08:58:51.688Z,5.3
2019-03-20T08:59:52.292Z,5.3
2019-03-20T09:00:51.829Z,5.3
2019-03-20T09:01:51.929Z,5.3
2019-03-20T09:02:52.118Z,5.3
2019-03-20T09:03:51.938Z,5.3
2019-03-20T09:04:52.097Z,5.3
2019-03-20T09:05:52.360Z,5.3
2019-03-20T09:06:52.093Z,5.4
2019-03-20T09:07:52.267Z,5.4
2019-03-20T09:08:52.246Z,5.4
2019-03-20T09:09:52.159Z,5.4
2019-03-20T09:10:52.323Z,5.4
2019-03-20T09:11:52.391Z,5.4
2019-03-20T09:12:52.324Z,5.4
2019-03-20T09:13:52.401Z,5.5
2019-03-20T09:14:52.495Z,5.5
2019-03-20T09:15:52.632Z,5.6
2019-03-20T09:16:52.606Z,5.6
2019-03-20T09:17:52.633Z,5.6
2019-03-20T09:18:52.688Z,5.7
2019-03-20T09:19:52.752Z,5.7
2019-03-20T09:20:52.851Z,5.8
2019-03-20T09:21:52.892Z,5.8
2019-03-20T09:22:52.892Z,5.8
2019-03-20T09:23:52.957Z,5.8
2019-03-20T09:24:53.021Z,5.8
2019-03-20T09:25:53.097Z,5.8
2019-03-20T09:26:53.291Z,5.8
2019-03-20T09:27:53.219Z,5.8
2019-03-20T09:28:53.304Z,5.9
2019-03-20T09:29:53.279Z,5.9
2019-03-20T09:30:53.350Z,5.9
2019-03-20T09:31:53.410Z,5.9
2019-03-20T09:32:53.457Z,5.9
2019-03-20T09:33:53.526Z,5.9
2019-03-20T09:34:53.671Z,5.9
2019-03-20T09:35:53.860Z,5.9
2019-03-20T09:36:53.670Z,5.9
2019-03-20T09:37:53.727Z,5.9
2019-03-20T09:38:53.807Z,5.9
2019-03-20T09:39:53.822Z,5.9
2019-03-20T09:40:54.000Z,5.9
2019-03-20T09:41:53.966Z,5.9
2019-03-20T09:42:54.023Z,5.9
2019-03-20T09:43:54.137Z,5.9
2019-03-20T09:44:54.093Z,5.9
2019-03-20T09:45:54.149Z,5.9
2019-03-20T09:46:54.201Z,5.9
2019-03-20T09:47:54.245Z,5.9
2019-03-20T09:48:54.302Z,5.9
2019-03-20T09:49:54.352Z,5.9
2019-03-20T09:50:54.396Z,5.9
2019-03-20T09:51:54.480Z,5.9
2019-03-20T09:52:54.515Z,5.9
2019-03-20T09:53:54.573Z,5.9
2019-03-20T09:54:54.657Z,5.9
2019-03-20T09:55:54.697Z,5.9
2019-03-20T09:56:54.779Z,5.9
2019-03-20T09:57:54.824Z,5.9
2019-03-20T09:58:54.868Z,5.9
2019-03-20T09:59:54.933Z,5.9
2019-03-20T10:00:54.986Z,5.9
2019-03-20T10:01:55.056Z,5.9
2019-03-20T10:02:55.115Z,5.9
2019-03-20T10:03:55.175Z,6
2019-03-20T10:04:55.192Z,5.9
2019-03-20T10:05:55.292Z,6
2019-03-20T10:06:55.329Z,6
2019-03-20T10:07:55.432Z,6
2019-03-20T10:08:55.423Z,6
2019-03-20T10:09:55.475Z,6
2019-03-20T10:10:55.530Z,6
2019-03-20T10:11:57.467Z,6
2019-03-20T10:12:55.648Z,6
2019-03-20T10:13:55.748Z,6
2019-03-20T10:14:55.788Z,6
2019-03-20T10:15:55.847Z,6
2019-03-20T10:16:55.902Z,6
2019-03-20T10:17:55.951Z,6
2019-03-20T10:18:56.014Z,6
2019-03-20T10:19:56.040Z,6
2019-03-20T10:20:56.130Z,6
2019-03-20T10:21:56.180Z,6
2019-03-20T10:22:56.232Z,6.1
2019-03-20T10:23:56.276Z,6.1
2019-03-20T10:24:56.320Z,6.1
2019-03-20T10:25:56.395Z,6.1
2019-03-20T10:26:56.469Z,6.1
2019-03-20T10:27:56.515Z,6.1
2019-03-20T10:28:56.535Z,6.1
2019-03-20T10:29:56.592Z,6.1
2019-03-20T10:30:56.651Z,6.1
2019-03-20T10:31:56.690Z,6.1
2019-03-20T10:32:56.760Z,6.1
2019-03-20T10:33:56.771Z,6.1
2019-03-20T10:34:56.842Z,6.1
2019-03-20T10:35:57.006Z,6.1
2019-03-20T10:36:57.041Z,6.1
2019-03-20T10:37:57.259Z,6.1
2019-03-20T10:39:05.921Z,6.1
2019-03-20T10:39:57.148Z,6.1
2019-03-20T10:40:57.173Z,6.1
2019-03-20T10:41:57.402Z,6.1
2019-03-20T10:42:57.382Z,6.1
2019-03-20T10:43:57.329Z,6.1
2019-03-20T10:44:57.389Z,6.1
2019-03-20T10:45:57.485Z,6.1
2019-03-20T10:46:57.499Z,6.1
2019-03-20T10:47:57.531Z,6.1
2019-03-20T10:48:57.571Z,6.1
2019-03-20T10:49:57.607Z,6.1
2019-03-20T10:50:57.682Z,6.1
2019-03-20T10:51:57.722Z,6.1
2019-03-20T10:52:57.781Z,6.1
2019-03-20T10:53:57.822Z,6.1
2019-03-20T10:54:57.878Z,6.1
2019-03-20T10:55:57.951Z,6.1
2019-03-20T10:56:58.030Z,6.2
2019-03-20T10:57:58.118Z,6.2
2019-03-20T10:58:58.156Z,6.2
2019-03-20T10:59:58.135Z,6.2
2019-03-20T11:00:58.193Z,6.2
2019-03-20T11:02:00.634Z,6.2
2019-03-20T11:02:58.403Z,6.2
2019-03-20T11:03:58.346Z,6.2
2019-03-20T11:04:58.403Z,6.2
2019-03-20T11:05:58.494Z,6.3
2019-03-20T11:06:58.524Z,6.3
2019-03-20T11:07:58.554Z,6.3
2019-03-20T11:08:58.641Z,6.3
2019-03-20T11:09:58.686Z,6.3
2019-03-20T11:10:58.761Z,6.3
2019-03-20T11:11:58.856Z,6.3
2019-03-20T11:12:58.885Z,6.3
2019-03-20T11:13:58.980Z,6.3
2019-03-20T11:14:59.000Z,6.3
2019-03-20T11:15:59.065Z,6.3
2019-03-20T11:16:59.087Z,6.3
2019-03-20T11:17:59.122Z,6.3
2019-03-20T11:18:59.252Z,6.3
2019-03-20T11:19:59.260Z,6.3
2019-03-20T11:20:59.296Z,6.4
2019-03-20T11:21:59.361Z,6.4
2019-03-20T11:22:59.417Z,6.4
2019-03-20T11:23:59.520Z,6.4
2019-03-20T11:24:59.581Z,6.4
2019-03-20T11:26:00.060Z,6.4
2019-03-20T11:26:59.700Z,6.4
2019-03-20T11:27:59.717Z,6.4
2019-03-20T11:28:59.817Z,6.4
2019-03-20T11:29:59.842Z,6.4
2019-03-20T11:30:59.909Z,6.4
2019-03-20T11:31:59.943Z,6.4
2019-03-20T11:33:00.002Z,6.5
2019-03-20T11:34:00.102Z,6.5
2019-03-20T11:35:00.347Z,6.5
2019-03-20T11:36:00.128Z,6.5
2019-03-20T11:37:00.540Z,6.5
2019-03-20T11:38:00.646Z,6.6
2019-03-20T11:39:00.501Z,6.6
2019-03-20T11:40:00.549Z,6.6
2019-03-20T11:41:00.523Z,6.6
2019-03-20T11:42:00.574Z,6.6
2019-03-20T11:43:00.578Z,6.6
2019-03-20T11:44:00.614Z,6.6
2019-03-20T11:45:00.654Z,6.6
2019-03-20T11:46:00.707Z,6.6
2019-03-20T11:47:00.767Z,6.6
2019-03-20T11:48:00.812Z,6.7
2019-03-20T11:49:00.888Z,6.7
2019-03-20T11:50:00.953Z,6.8
2019-03-20T11:51:01.017Z,6.8
2019-03-20T11:52:01.100Z,6.8
2019-03-20T11:53:01.126Z,6.8
2019-03-20T11:54:01.208Z,6.9
2019-03-20T11:55:01.241Z,6.9
2019-03-20T11:56:01.402Z,6.9
2019-03-20T11:57:01.376Z,6.9
2019-03-20T11:58:01.437Z,6.9
2019-03-20T11:59:01.501Z,7
2019-03-20T12:00:01.593Z,7
2019-03-20T12:01:01.608Z,7
2019-03-20T12:02:01.675Z,7
2019-03-20T12:03:01.732Z,6.9
2019-03-20T12:04:01.793Z,6.9
2019-03-20T12:05:01.836Z,6.9
2019-03-20T12:06:01.895Z,6.9
2019-03-20T12:07:01.957Z,6.9
2019-03-20T12:08:02.023Z,6.9
2019-03-20T12:09:02.067Z,6.9
2019-03-20T12:10:02.149Z,6.9
2019-03-20T12:11:02.162Z,6.9
2019-03-20T12:12:02.240Z,6.9
2019-03-20T12:13:02.312Z,6.9
2019-03-20T12:14:02.373Z,6.9
2019-03-20T12:15:02.440Z,6.9
2019-03-20T12:16:03.333Z,6.9
2019-03-20T12:17:02.508Z,6.9
2019-03-20T12:18:02.535Z,6.9
2019-03-20T12:19:02.668Z,6.9
2019-03-20T12:20:02.750Z,6.9
2019-03-20T12:21:02.733Z,6.9
2019-03-20T12:22:03.300Z,6.9
2019-03-20T12:23:02.890Z,6.9
2019-03-20T12:24:02.900Z,6.8
2019-03-20T12:25:03.022Z,6.8
2019-03-20T12:26:03.016Z,6.8
2019-03-20T12:27:10.637Z,6.8
2019-03-20T12:28:03.442Z,6.8
2019-03-20T12:29:03.496Z,6.8
2019-03-20T12:30:03.788Z,6.8
2019-03-20T12:31:03.398Z,6.8
2019-03-20T12:32:03.621Z,6.8
2019-03-20T12:33:04.180Z,6.8
2019-03-20T12:34:03.574Z,6.8
2019-03-20T12:35:03.563Z,6.8
2019-03-20T12:36:03.984Z,6.8
2019-03-20T12:37:03.922Z,6.8
2019-03-20T12:38:13.586Z,6.8
2019-03-20T12:39:04.017Z,6.8
2019-03-20T12:40:05.246Z,6.8
2019-03-20T12:41:04.518Z,6.8
2019-03-20T12:42:04.637Z,6.8
2019-03-20T12:43:05.042Z,6.7
2019-03-20T12:44:04.980Z,6.7
2019-03-20T12:45:05.254Z,6.7
2019-03-20T12:46:04.225Z,6.7
2019-03-20T12:47:05.769Z,6.7
2019-03-20T12:48:05.783Z,6.7
2019-03-20T12:49:05.280Z,6.6
2019-03-20T12:50:04.299Z,6.6
2019-03-20T12:51:04.347Z,6.6
2019-03-20T12:52:04.436Z,6.6
2019-03-20T12:53:04.441Z,6.6
2019-03-20T12:54:04.609Z,6.6
2019-03-20T12:55:04.667Z,6.6
2019-03-20T12:56:04.574Z,6.6
2019-03-20T12:57:04.675Z,6.5
2019-03-20T12:58:04.688Z,6.5
2019-03-20T12:59:04.793Z,6.5
2019-03-20T13:00:04.839Z,6.4
2019-03-20T13:01:04.857Z,6.4
2019-03-20T13:02:04.895Z,6.4
2019-03-20T13:03:05.003Z,6.4
2019-03-20T13:04:05.054Z,6.4
2019-03-20T13:05:05.114Z,6.4
2019-03-20T13:06:05.162Z,6.4
2019-03-20T13:07:05.316Z,6.4
2019-03-20T13:08:05.861Z,6.4
2019-03-20T13:09:05.342Z,6.4
2019-03-20T13:10:05.375Z,6.4
2019-03-20T13:11:05.428Z,6.4
2019-03-20T13:12:26.802Z,6.4
2019-03-20T13:13:05.577Z,6.4
2019-03-20T13:14:05.644Z,6.4
2019-03-20T13:15:05.774Z,6.4
2019-03-20T13:16:05.730Z,6.4
2019-03-20T13:17:05.785Z,6.4
2019-03-20T13:18:05.843Z,6.4
2019-03-20T13:19:05.894Z,6.4
2019-03-20T13:20:06.003Z,6.4
2019-03-20T13:21:06.034Z,6.4
2019-03-20T13:22:06.106Z,6.4
2019-03-20T13:23:06.133Z,6.4
2019-03-20T13:24:06.211Z,6.4
2019-03-20T13:25:06.230Z,6.4
2019-03-20T13:26:06.285Z,6.4
2019-03-20T13:27:06.348Z,6.4
2019-03-20T13:28:06.407Z,6.4
2019-03-20T13:29:06.475Z,6.4
2019-03-20T13:30:06.534Z,6.5
2019-03-20T13:31:06.645Z,6.5
2019-03-20T13:32:06.643Z,6.5
2019-03-20T13:33:06.717Z,6.6
2019-03-20T13:34:06.757Z,6.6
2019-03-20T13:35:07.288Z,6.6
2019-03-20T13:36:06.874Z,6.6
2019-03-20T13:37:06.893Z,6.6
2019-03-20T13:38:06.967Z,6.6
2019-03-20T13:39:07.032Z,6.6
2019-03-20T13:40:14.131Z,6.6
2019-03-20T13:41:07.326Z,6.6
2019-03-20T13:42:07.223Z,6.6
2019-03-20T13:43:07.248Z,6.6
2019-03-20T13:44:07.839Z,6.7
2019-03-20T13:45:07.381Z,6.7
2019-03-20T13:46:07.462Z,6.7
2019-03-20T13:47:08.208Z,6.7
2019-03-20T13:48:07.483Z,6.7
2019-03-20T13:49:07.543Z,6.7
2019-03-20T13:50:07.574Z,6.7
2019-03-20T13:51:07.617Z,6.7
2019-03-20T13:52:07.669Z,6.7
2019-03-20T13:53:07.723Z,6.6